Time;durP1;ratioP1;P1;durP2;ratioP2;P2;SDS_P1;SDS_P2;PMS_P1;PMS_P2;Temp;Humidity;BMP_temperature;BMP_pressure;BME280_temperature;BME280_humidity;BME280_pressure;Samples;Min_cycle;Max_cycle;Signal;HPM_P1;HPM_P2
2023/04/06 00:01:47;;;;;;;14.15;7.18;;;2.40;99.90;;;;;;5013465;28;20045;-79
2023/04/06 00:04:13;;;;;;;15.90;7.57;;;2.40;99.90;;;;;;5031364;28;20497;-79
2023/04/06 00:06:39;;;;;;;15.80;7.72;;;2.70;99.90;;;;;;5066853;28;20405;-79
2023/04/06 00:09:04;;;;;;;12.85;6.70;;;2.40;99.90;;;;;;5035340;28;20036;-79
2023/04/06 00:11:30;;;;;;;14.18;7.63;;;2.30;99.90;;;;;;5051856;28;20037;-79
2023/04/06 00:13:56;;;;;;;14.50;6.80;;;2.40;99.90;;;;;;5067907;28;20037;-79
2023/04/06 00:16:21;;;;;;;15.68;7.75;;;2.40;99.90;;;;;;5051531;28;20482;-78
2023/04/06 00:18:47;;;;;;;15.52;7.97;;;2.40;99.90;;;;;;5051575;28;20037;-78
2023/04/06 00:21:14;;;;;;;12.82;6.90;;;2.30;99.90;;;;;;5034437;28;20075;-78
2023/04/06 00:23:40;;;;;;;14.93;7.45;;;2.30;99.90;;;;;;5031839;28;20075;-78
2023/04/06 00:26:06;;;;;;;14.52;7.93;;;2.30;99.90;;;;;;5063458;28;20049;-78
2023/04/06 00:28:32;;;;;;;14.68;7.47;;;2.30;99.90;;;;;;5068666;28;20119;-78
2023/04/06 00:30:58;;;;;;;15.55;8.27;;;2.20;99.90;;;;;;5055340;28;20403;-79
2023/04/06 00:33:23;;;;;;;14.20;7.88;;;2.70;99.90;;;;;;5072604;28;20036;-79
2023/04/06 00:35:50;;;;;;;14.90;8.00;;;2.20;99.90;;;;;;5055170;28;20367;-79
2023/04/06 00:38:16;;;;;;;14.75;8.48;;;2.20;99.90;;;;;;5071947;28;20072;-79
2023/04/06 00:40:43;;;;;;;13.10;7.82;;;2.20;99.90;;;;;;5071456;28;20133;-79
2023/04/06 00:43:10;;;;;;;16.40;8.07;;;2.20;99.90;;;;;;5040213;28;20112;-79
2023/04/06 00:45:38;;;;;;;15.35;8.27;;;2.10;99.90;;;;;;5038738;28;20676;-79
2023/04/06 00:48:05;;;;;;;14.23;8.27;;;2.20;99.90;;;;;;5054997;28;20512;-79
2023/04/06 00:50:30;;;;;;;13.60;8.02;;;2.10;99.90;;;;;;5053942;28;20517;-79
2023/04/06 00:52:56;;;;;;;15.25;8.13;;;2.10;99.90;;;;;;5049618;28;20139;-79
2023/04/06 00:55:22;;;;;;;14.13;8.27;;;2.10;99.90;;;;;;5050513;28;20052;-79
2023/04/06 00:57:50;;;;;;;15.52;8.77;;;2.00;99.90;;;;;;5068120;28;20043;-79
2023/04/06 01:00:16;;;;;;;15.35;8.70;;;2.00;99.90;;;;;;5070916;28;20047;-79
2023/04/06 01:02:42;;;;;;;15.05;8.30;;;2.00;99.90;;;;;;5070924;28;20044;-79
2023/04/06 01:05:08;;;;;;;16.15;8.13;;;2.00;99.90;;;;;;5026955;28;20098;-79
2023/04/06 01:07:34;;;;;;;15.45;8.73;;;1.90;99.90;;;;;;5059971;28;20111;-79
2023/04/06 01:10:00;;;;;;;15.32;8.30;;;1.90;99.90;;;;;;5064463;28;20115;-79
2023/04/06 01:12:25;;;;;;;19.58;8.43;;;1.90;99.90;;;;;;5056478;28;20094;-79
2023/04/06 01:14:51;;;;;;;14.98;8.38;;;2.30;99.90;;;;;;5032944;28;20040;-79
2023/04/06 01:17:17;;;;;;;16.65;8.63;;;1.80;99.90;;;;;;5017770;28;20054;-79
2023/04/06 01:19:44;;;;;;;14.70;9.18;;;1.80;99.90;;;;;;5046614;28;20101;-79
2023/04/06 01:22:16;;;;;;;15.50;8.98;;;1.80;99.90;;;;;;5045714;28;20119;-79
2023/04/06 01:24:42;;;;;;;14.52;8.90;;;1.70;99.90;;;;;;5054543;28;20032;-79
2023/04/06 01:27:08;;;;;;;15.90;8.80;;;1.80;99.90;;;;;;5070564;28;20571;-79
2023/04/06 01:29:34;;;;;;;14.23;8.45;;;1.70;99.90;;;;;;5049600;28;20053;-79
2023/04/06 01:32:00;;;;;;;14.48;8.77;;;1.70;99.90;;;;;;5050981;28;20044;-79
2023/04/06 01:34:25;;;;;;;15.70;8.75;;;2.00;99.90;;;;;;5067149;28;20556;-79
2023/04/06 01:36:51;;;;;;;17.38;9.38;;;1.60;99.90;;;;;;5067103;28;20060;-79
2023/04/06 01:39:17;;;;;;;15.38;9.27;;;1.60;99.90;;;;;;5066338;28;20249;-79
2023/04/06 01:41:43;;;;;;;15.77;9.60;;;1.50;99.90;;;;;;5033957;28;20044;-79
2023/04/06 01:44:09;;;;;;;16.40;9.65;;;1.50;99.90;;;;;;5035287;28;20049;-79
2023/04/06 01:46:35;;;;;;;15.85;10.00;;;2.00;99.90;;;;;;5030719;28;20060;-79
2023/04/06 01:49:00;;;;;;;15.45;9.52;;;1.50;99.90;;;;;;5049017;28;21987;-79
2023/04/06 01:51:26;;;;;;;17.20;9.65;;;1.90;99.90;;;;;;5050636;28;20032;-79
2023/04/06 01:53:52;;;;;;;17.75;9.80;;;1.90;99.90;;;;;;5050715;28;20040;-79
2023/04/06 01:56:18;;;;;;;17.13;9.85;;;1.50;99.90;;;;;;5067028;28;20044;-79
2023/04/06 01:58:44;;;;;;;14.88;8.88;;;1.40;99.90;;;;;;5067530;28;20028;-79
2023/04/06 02:01:10;;;;;;;16.92;10.00;;;1.40;99.90;;;;;;5050447;28;20435;-79
2023/04/06 02:03:35;;;;;;;18.23;9.82;;;2.10;99.90;;;;;;5037445;28;20115;-79
2023/04/06 02:06:01;;;;;;;15.57;9.63;;;1.80;99.90;;;;;;5015906;28;20124;-79
2023/04/06 02:08:27;;;;;;;17.85;10.15;;;1.40;99.90;;;;;;5024734;28;20079;-79
2023/04/06 02:10:53;;;;;;;16.20;9.15;;;1.70;99.90;;;;;;5053861;28;20039;-79
2023/04/06 02:13:18;;;;;;;16.70;9.98;;;1.30;99.90;;;;;;5070849;28;20040;-79
2023/04/06 02:15:44;;;;;;;18.40;10.10;;;1.30;99.90;;;;;;5052819;28;20501;-79
2023/04/06 02:18:10;;;;;;;16.80;9.63;;;1.30;99.90;;;;;;5052589;28;20086;-79
2023/04/06 02:20:36;;;;;;;18.27;9.50;;;1.50;99.90;;;;;;5068298;28;20044;-79
2023/04/06 02:23:01;;;;;;;18.52;9.95;;;1.20;99.90;;;;;;5052457;28;20041;-79
2023/04/06 02:25:27;;;;;;;18.15;10.02;;;1.30;99.90;;;;;;5066296;28;20040;-79
2023/04/06 02:27:54;;;;;;;15.85;9.50;;;1.20;99.90;;;;;;5061313;28;20060;-79
2023/04/06 02:30:20;;;;;;;18.13;9.70;;;1.20;99.90;;;;;;5033149;28;20052;-79
2023/04/06 02:32:45;;;;;;;16.52;9.45;;;1.20;99.90;;;;;;5022169;28;20045;-80
2023/04/06 02:35:11;;;;;;;19.33;10.23;;;1.20;99.90;;;;;;5032937;28;20045;-80
2023/04/06 02:37:37;;;;;;;16.17;9.95;;;1.20;99.90;;;;;;5033114;28;20037;-79
2023/04/06 02:40:03;;;;;;;17.33;9.80;;;1.10;99.90;;;;;;5048661;28;20045;-79
2023/04/06 02:42:29;;;;;;;16.42;9.55;;;1.10;99.90;;;;;;5032740;28;20071;-79
2023/04/06 02:44:55;;;;;;;15.30;9.35;;;1.10;99.90;;;;;;5049222;28;20037;-79
2023/04/06 02:47:21;;;;;;;15.70;9.60;;;1.40;99.90;;;;;;5033875;28;20090;-79
2023/04/06 02:49:47;;;;;;;16.65;10.27;;;1.10;99.90;;;;;;5017152;28;20051;-79
2023/04/06 02:52:12;;;;;;;17.77;10.40;;;1.10;99.90;;;;;;5032020;28;20033;-79
2023/04/06 02:54:38;;;;;;;16.45;9.85;;;1.20;99.90;;;;;;5047076;28;20522;-79
2023/04/06 02:57:04;;;;;;;16.75;9.90;;;1.30;99.90;;;;;;5045195;28;20079;-79
2023/04/06 02:59:29;;;;;;;16.92;9.93;;;1.20;99.90;;;;;;5049548;28;20062;-79
2023/04/06 03:01:55;;;;;;;15.73;9.75;;;1.60;99.90;;;;;;5027913;28;20072;-79
2023/04/06 03:04:22;;;;;;;17.35;9.90;;;1.10;99.90;;;;;;5048565;28;20045;-79
2023/04/06 03:06:48;;;;;;;20.13;10.10;;;1.10;99.90;;;;;;5016554;28;20479;-79
2023/04/06 03:09:14;;;;;;;18.08;10.18;;;1.10;99.90;;;;;;5032943;28;20102;-79
2023/04/06 03:11:40;;;;;;;17.02;10.15;;;1.00;99.90;;;;;;5032856;28;20276;-79
2023/04/06 03:14:05;;;;;;;16.55;9.52;;;1.00;99.90;;;;;;5049567;28;20045;-79
2023/04/06 03:16:31;;;;;;;15.82;9.75;;;1.30;99.90;;;;;;5048249;28;20048;-79
2023/04/06 03:18:57;;;;;;;17.27;10.27;;;1.00;99.90;;;;;;5015653;28;20098;-79
2023/04/06 03:21:22;;;;;;;17.60;10.38;;;1.50;99.90;;;;;;5032721;28;20508;-79
2023/04/06 03:23:51;;;;;;;17.02;10.07;;;0.90;99.90;;;;;;5032843;28;20045;-79
2023/04/06 03:26:17;;;;;;;18.55;10.18;;;0.90;99.90;;;;;;5048958;28;20056;-79
2023/04/06 03:28:43;;;;;;;19.25;10.02;;;0.90;99.90;;;;;;5049267;28;20080;-79
2023/04/06 03:31:08;;;;;;;15.70;9.20;;;1.20;99.90;;;;;;5031487;28;20517;-79
2023/04/06 03:33:34;;;;;;;15.88;9.82;;;0.90;99.90;;;;;;5032325;28;20415;-79
2023/04/06 03:36:00;;;;;;;18.27;9.82;;;0.90;99.90;;;;;;5032434;28;20166;-79
2023/04/06 03:38:25;;;;;;;17.88;9.95;;;1.30;99.90;;;;;;5032848;28;20186;-79
2023/04/06 03:40:51;;;;;;;18.52;9.25;;;0.80;99.90;;;;;;5048605;28;20546;-79
2023/04/06 03:43:17;;;;;;;15.25;9.55;;;0.80;99.90;;;;;;5047730;28;20045;-79
2023/04/06 03:45:43;;;;;;;17.60;10.23;;;0.80;99.90;;;;;;5015609;28;20055;-79
2023/04/06 03:48:08;;;;;;;18.30;10.68;;;0.80;99.90;;;;;;5031634;28;20040;-79
2023/04/06 03:50:34;;;;;;;19.58;10.82;;;0.90;99.90;;;;;;5048584;28;20079;-79
2023/04/06 03:53:02;;;;;;;18.33;10.18;;;0.70;99.90;;;;;;5048108;28;20037;-79
2023/04/06 03:55:28;;;;;;;17.35;9.80;;;0.70;99.90;;;;;;5012424;28;20040;-79
2023/04/06 03:57:54;;;;;;;17.13;9.90;;;0.90;99.90;;;;;;5031138;28;20041;-79
2023/04/06 04:00:20;;;;;;;18.05;10.27;;;0.80;99.90;;;;;;5032321;28;20107;-79
2023/04/06 04:02:46;;;;;;;17.67;10.52;;;0.70;99.90;;;;;;5032171;28;20110;-79
2023/04/06 04:05:11;;;;;;;15.70;9.63;;;0.70;99.90;;;;;;5048459;28;20041;-79
2023/04/06 04:07:37;;;;;;;15.90;9.50;;;0.70;99.90;;;;;;5030824;28;20033;-79
2023/04/06 04:10:03;;;;;;;17.20;10.20;;;0.90;99.90;;;;;;5047409;28;20047;-79
2023/04/06 04:12:29;;;;;;;17.65;9.80;;;0.70;99.90;;;;;;5015376;28;20156;-79
2023/04/06 04:14:55;;;;;;;16.58;9.73;;;1.00;99.90;;;;;;5015853;28;20127;-79
2023/04/06 04:17:21;;;;;;;19.38;9.65;;;0.60;99.90;;;;;;5031639;28;20571;-79
2023/04/06 04:19:47;;;;;;;15.70;9.10;;;0.60;99.90;;;;;;5015224;28;20036;-79
2023/04/06 04:22:13;;;;;;;15.82;9.10;;;0.80;99.90;;;;;;5046974;28;20087;-79
2023/04/06 04:24:39;;;;;;;18.77;9.77;;;0.60;99.90;;;;;;5031326;28;20060;-79
2023/04/06 04:27:05;;;;;;;18.10;9.60;;;0.60;99.90;;;;;;5031948;28;20047;-79
2023/04/06 04:29:31;;;;;;;16.65;9.68;;;0.70;99.90;;;;;;5050374;28;20575;-79
2023/04/06 04:31:56;;;;;;;17.95;10.60;;;1.80;99.90;;;;;;5067858;28;20047;-79
2023/04/06 04:34:25;;;;;;;17.27;9.82;;;0.60;99.90;;;;;;5067081;28;20041;-79
2023/04/06 04:36:52;;;;;;;17.25;9.93;;;1.00;99.90;;;;;;5051731;28;20382;-79
2023/04/06 04:39:17;;;;;;;15.88;9.18;;;0.50;99.90;;;;;;5050943;28;20049;-79
2023/04/06 04:41:43;;;;;;;17.60;9.68;;;0.60;99.90;;;;;;5050963;28;20040;-79
2023/04/06 04:44:09;;;;;;;15.77;9.32;;;0.50;99.90;;;;;;5050988;28;20093;-79
2023/04/06 04:46:35;;;;;;;17.45;10.18;;;0.50;99.90;;;;;;5066053;28;20355;-79
2023/04/06 04:49:00;;;;;;;17.10;9.70;;;0.50;99.90;;;;;;5033174;28;20048;-79
2023/04/06 04:51:26;;;;;;;16.25;9.45;;;0.60;99.90;;;;;;5058045;28;20190;-79
2023/04/06 04:53:52;;;;;;;18.27;10.07;;;0.50;99.90;;;;;;5047563;28;20044;-79
2023/04/06 04:56:18;;;;;;;16.40;9.27;;;0.50;99.90;;;;;;5055239;28;20037;-78
2023/04/06 04:58:43;;;;;;;16.45;9.50;;;0.60;99.90;;;;;;5047709;28;20075;-78
2023/04/06 05:01:09;;;;;;;17.30;9.43;;;0.50;99.90;;;;;;5045520;28;20570;-78
2023/04/06 05:03:38;;;;;;;16.63;9.68;;;0.70;99.90;;;;;;5044872;28;20040;-77
2023/04/06 05:06:04;;;;;;;17.00;9.23;;;0.40;99.90;;;;;;5049002;28;20044;-78
2023/04/06 05:08:30;;;;;;;16.52;9.35;;;0.40;99.90;;;;;;5047877;28;20036;-78
2023/04/06 05:10:56;;;;;;;16.40;9.60;;;0.40;99.90;;;;;;5049831;28;20086;-78
2023/04/06 05:13:22;;;;;;;16.08;9.10;;;0.90;99.90;;;;;;5062382;28;20032;-78
2023/04/06 05:15:48;;;;;;;15.82;9.25;;;0.50;99.90;;;;;;5032614;28;20439;-77
2023/04/06 05:18:14;;;;;;;17.58;9.52;;;1.10;99.90;;;;;;5032716;28;20090;-78
2023/04/06 05:20:40;;;;;;;16.10;9.02;;;0.60;99.90;;;;;;5048713;28;20096;-78
2023/04/06 05:23:06;;;;;;;18.30;9.68;;;0.50;99.90;;;;;;5050000;28;20045;-77
2023/04/06 05:25:32;;;;;;;17.58;10.07;;;0.50;99.90;;;;;;5034283;28;20482;-78
2023/04/06 05:27:58;;;;;;;15.70;9.05;;;1.10;99.90;;;;;;5067502;28;20571;-77
2023/04/06 05:30:24;;;;;;;18.40;9.45;;;0.60;99.90;;;;;;5048762;28;20071;-77
2023/04/06 05:32:50;;;;;;;16.45;9.32;;;0.60;99.90;;;;;;5043817;28;20044;-78
2023/04/06 05:35:17;;;;;;;15.30;9.60;;;0.70;99.90;;;;;;5045821;28;20490;-78
2023/04/06 05:37:43;;;;;;;16.88;9.55;;;0.70;99.90;;;;;;5068430;28;20044;-78
2023/04/06 05:40:09;;;;;;;20.75;9.65;;;0.70;99.90;;;;;;5067307;28;20065;-78
2023/04/06 05:42:44;;;;;;;16.92;9.18;;;0.70;99.90;;;;;;5052168;28;20170;-78
2023/04/06 05:45:11;;;;;;;23.08;9.57;;;0.80;99.90;;;;;;5032106;28;20398;-78
2023/04/06 05:47:37;;;;;;;21.40;9.80;;;0.80;99.90;;;;;;5018074;28;20071;-78
2023/04/06 05:50:03;;;;;;;17.77;8.85;;;0.90;99.90;;;;;;5051284;28;20041;-78
2023/04/06 05:52:29;;;;;;;15.65;8.57;;;1.00;99.90;;;;;;5037003;28;20540;-78
2023/04/06 05:54:54;;;;;;;16.02;8.85;;;1.10;99.90;;;;;;5054072;28;20040;-78
2023/04/06 05:57:20;;;;;;;14.43;8.80;;;1.50;99.90;;;;;;5070704;28;20105;-78
2023/04/06 05:59:46;;;;;;;15.07;8.55;;;1.20;99.90;;;;;;5054599;28;20040;-78
2023/04/06 06:02:12;;;;;;;14.52;8.43;;;1.30;99.90;;;;;;5037601;28;20079;-78
2023/04/06 06:04:37;;;;;;;16.98;8.70;;;1.40;99.90;;;;;;5052172;28;20074;-78
2023/04/06 06:07:03;;;;;;;14.40;8.73;;;2.00;99.90;;;;;;5037734;28;20037;-78
2023/04/06 06:09:29;;;;;;;14.73;8.88;;;1.50;99.90;;;;;;5070899;28;20063;-78
2023/04/06 06:11:55;;;;;;;15.90;9.20;;;1.60;99.90;;;;;;5070955;28;20040;-78
2023/04/06 06:14:21;;;;;;;14.75;8.15;;;1.70;99.90;;;;;;5070027;28;20654;-79
2023/04/06 06:16:47;;;;;;;14.65;8.63;;;2.20;99.90;;;;;;5054029;28;20044;-79
2023/04/06 06:19:13;;;;;;;14.90;8.52;;;1.90;99.90;;;;;;5070553;28;20498;-79
2023/04/06 06:21:39;;;;;;;15.23;8.60;;;2.00;99.90;;;;;;5053838;28;20056;-79
2023/04/06 06:24:06;;;;;;;14.68;8.05;;;2.10;99.90;;;;;;5069443;28;20115;-79
2023/04/06 06:26:32;;;;;;;15.63;8.70;;;2.20;99.90;;;;;;5063198;28;20036;-79
2023/04/06 06:28:58;;;;;;;13.70;7.95;;;2.30;99.90;;;;;;5050392;28;20103;-79
2023/04/06 06:31:24;;;;;;;15.02;7.82;;;2.50;99.90;;;;;;5033926;28;20045;-79
2023/04/06 06:33:51;;;;;;;14.95;8.05;;;2.60;99.90;;;;;;5033969;28;20120;-79
2023/04/06 06:36:19;;;;;;;15.13;8.60;;;2.70;99.90;;;;;;5064519;28;20045;-79
2023/04/06 06:38:45;;;;;;;15.75;8.02;;;2.80;99.90;;;;;;5037263;28;20052;-79
2023/04/06 06:41:11;;;;;;;14.88;8.20;;;2.90;99.90;;;;;;5036787;28;20063;-79
2023/04/06 06:43:37;;;;;;;13.32;8.05;;;3.00;99.90;;;;;;5053725;28;20469;-79
2023/04/06 06:46:04;;;;;;;14.18;8.02;;;3.20;99.90;;;;;;5068972;28;20111;-79
2023/04/06 06:48:30;;;;;;;13.13;8.23;;;3.30;99.90;;;;;;5070369;28;20127;-79
2023/04/06 06:50:56;;;;;;;14.13;8.10;;;3.40;99.90;;;;;;5069847;28;20078;-79
2023/04/06 06:53:22;;;;;;;14.07;8.43;;;3.50;99.90;;;;;;5053682;28;20048;-79
2023/04/06 06:55:51;;;;;;;17.65;8.63;;;3.70;99.90;;;;;;5051021;28;20106;-79
2023/04/06 06:58:19;;;;;;;14.02;8.35;;;3.80;99.90;;;;;;5070667;28;20398;-79
2023/04/06 07:00:44;;;;;;;15.75;8.32;;;3.90;99.90;;;;;;5053219;28;20044;-79
2023/04/06 07:03:10;;;;;;;13.57;8.25;;;4.00;99.90;;;;;;5069945;28;20037;-79
2023/04/06 07:05:36;;;;;;;14.63;7.70;;;4.20;99.90;;;;;;5052877;28;20110;-79
2023/04/06 07:08:02;;;;;;;14.20;8.23;;;4.30;99.90;;;;;;5069023;28;20047;-79
2023/04/06 07:10:27;;;;;;;14.00;8.20;;;4.50;99.90;;;;;;5036312;28;20040;-79
2023/04/06 07:12:53;;;;;;;13.40;7.80;;;4.60;99.90;;;;;;5053624;28;20092;-79
2023/04/06 07:15:19;;;;;;;15.65;8.05;;;4.70;99.90;;;;;;5069941;28;20482;-79
2023/04/06 07:17:45;;;;;;;13.13;8.00;;;4.90;99.90;;;;;;5047736;28;20045;-80
2023/04/06 07:20:11;;;;;;;13.43;7.45;;;5.20;99.90;;;;;;5019386;28;20036;-80
2023/04/06 07:22:42;;;;;;;15.95;7.70;;;5.10;99.90;;;;;;5032789;28;20520;-80
2023/04/06 07:25:08;;;;;;;13.20;7.75;;;5.30;99.90;;;;;;5049787;28;20041;-80
2023/04/06 07:27:34;;;;;;;14.27;7.50;;;5.40;99.90;;;;;;5053602;28;20036;-80
2023/04/06 07:30:00;;;;;;;13.95;7.32;;;5.50;99.90;;;;;;5072992;28;20044;-80
2023/04/06 07:32:26;;;;;;;12.55;7.38;;;5.60;99.90;;;;;;5052616;28;20058;-79
2023/04/06 07:34:52;;;;;;;14.23;7.60;;;5.80;99.90;;;;;;5036289;28;20044;-79
2023/04/06 07:37:17;;;;;;;13.75;7.72;;;5.90;99.90;;;;;;5052304;28;20165;-79
2023/04/06 07:39:43;;;;;;;14.68;7.22;;;6.00;99.90;;;;;;5036098;28;20052;-79
2023/04/06 07:42:09;;;;;;;13.43;7.40;;;6.20;99.90;;;;;;5059021;28;20040;-79
2023/04/06 07:44:35;;;;;;;13.90;7.70;;;6.30;99.90;;;;;;5039679;28;20044;-79
2023/04/06 07:47:01;;;;;;;13.65;7.63;;;6.40;99.90;;;;;;5052050;28;20119;-79
2023/04/06 07:49:27;;;;;;;12.25;6.85;;;6.50;99.90;;;;;;5052842;28;20037;-79
2023/04/06 07:51:53;;;;;;;11.98;7.13;;;6.60;99.90;;;;;;5055627;28;20040;-79
2023/04/06 07:54:19;;;;;;;13.05;7.60;;;6.80;99.90;;;;;;5071263;28;20039;-79
2023/04/06 07:56:45;;;;;;;14.25;7.47;;;6.90;99.90;;;;;;5064601;28;20042;-79
2023/04/06 07:59:11;;;;;;;14.43;7.45;;;7.00;99.90;;;;;;5072168;28;20115;-79
2023/04/06 08:01:37;;;;;;;15.25;7.90;;;7.10;99.90;;;;;;5044211;28;20040;-79
2023/04/06 08:04:03;;;;;;;13.95;7.80;;;7.20;99.90;;;;;;5052427;28;20059;-79
2023/04/06 08:06:28;;;;;;;13.23;7.80;;;7.30;99.90;;;;;;5046911;28;20068;-79
2023/04/06 08:08:54;;;;;;;12.40;7.22;;;7.50;99.90;;;;;;5019153;28;20074;-79
2023/04/06 08:11:20;;;;;;;13.60;7.68;;;7.50;99.90;;;;;;5051658;28;20075;-79
2023/04/06 08:13:46;;;;;;;13.48;7.35;;;7.60;99.90;;;;;;5019023;28;20044;-79
2023/04/06 08:16:12;;;;;;;14.52;7.53;;;7.80;99.90;;;;;;5042752;28;20063;-79
2023/04/06 08:18:38;;;;;;;12.88;7.25;;;7.80;99.90;;;;;;5051917;28;20191;-79
2023/04/06 08:21:03;;;;;;;13.35;6.80;;;7.90;99.90;;;;;;5051456;28;20076;-80
2023/04/06 08:23:29;;;;;;;14.70;7.43;;;8.10;99.90;;;;;;5051913;28;20120;-80
2023/04/06 08:25:55;;;;;;;12.27;7.07;;;8.10;99.90;;;;;;5022294;28;20462;-80
2023/04/06 08:28:21;;;;;;;13.70;7.25;;;8.20;99.90;;;;;;5051702;28;20540;-79
2023/04/06 08:30:48;;;;;;;13.30;7.40;;;8.40;99.90;;;;;;5034748;28;20048;-80
2023/04/06 08:33:14;;;;;;;13.60;7.05;;;8.50;99.90;;;;;;5035153;28;20044;-79
2023/04/06 08:35:39;;;;;;;12.90;7.40;;;8.60;99.90;;;;;;5037933;28;20097;-79
2023/04/06 08:38:06;;;;;;;13.65;7.85;;;8.60;99.90;;;;;;5029008;28;20040;-79
2023/04/06 08:40:39;;;;;;;15.73;7.28;;;8.70;99.90;;;;;;5018267;28;20068;-80
2023/04/06 08:43:09;;;;;;;17.20;7.30;;;8.90;99.90;;;;;;5051606;28;20068;-80
2023/04/06 08:45:35;;;;;;;13.27;7.47;;;9.00;99.90;;;;;;5050953;28;20127;-80
2023/04/06 08:48:03;;;;;;;12.57;7.13;;;9.10;99.90;;;;;;5043932;28;20036;-79
2023/04/06 08:50:30;;;;;;;13.77;7.22;;;9.20;99.90;;;;;;5034562;28;20040;-80
2023/04/06 08:52:56;;;;;;;13.77;7.45;;;9.30;99.90;;;;;;5051346;28;20051;-80
2023/04/06 08:55:22;;;;;;;13.70;7.57;;;9.50;99.90;;;;;;5059751;28;20478;-80
2023/04/06 08:57:48;;;;;;;14.05;7.57;;;9.60;99.90;;;;;;5053943;28;20351;-80
2023/04/06 09:00:16;;;;;;;15.07;7.60;;;9.70;99.90;;;;;;5066182;28;20445;-80
2023/04/06 09:02:45;;;;;;;15.55;7.72;;;9.80;99.90;;;;;;5054426;28;20044;-80
2023/04/06 09:05:11;;;;;;;13.95;7.63;;;10.00;99.90;;;;;;5070914;28;20071;-80
2023/04/06 09:07:37;;;;;;;13.98;7.55;;;10.10;99.90;;;;;;5053448;28;20397;-80
2023/04/06 09:10:04;;;;;;;13.65;7.72;;;10.20;99.90;;;;;;5025016;28;20028;-80
2023/04/06 09:12:31;;;;;;;13.43;7.07;;;10.30;99.90;;;;;;5034568;28;20045;-80
2023/04/06 09:14:58;;;;;;;12.38;7.05;;;10.40;99.90;;;;;;5036738;28;20089;-80
2023/04/06 09:17:33;;;;;;;13.77;7.93;;;10.50;99.90;;;;;;5022329;28;20102;-80
2023/04/06 09:20:00;;;;;;;14.27;7.47;;;10.60;99.90;;;;;;5058934;28;20454;-80
2023/04/06 09:22:38;;;;;;;13.35;7.53;;;10.70;99.90;;;;;;5075090;28;20475;-80
2023/04/06 09:25:05;;;;;;;16.67;7.85;;;10.80;99.90;;;;;;5041679;28;20566;-77
2023/04/06 09:27:36;;;;;;;12.95;7.30;;;10.90;99.90;;;;;;5041167;28;20039;-79
2023/04/06 09:30:07;;;;;;;14.70;7.60;;;11.10;99.90;;;;;;5073677;28;20082;-80
2023/04/06 09:32:45;;;;;;;14.02;7.72;;;11.20;99.90;;;;;;5074765;28;20490;-80
2023/04/06 09:35:11;;;;;;;12.68;7.30;;;11.30;99.90;;;;;;5074848;28;20076;-80
2023/04/06 09:37:37;;;;;;;14.57;7.53;;;11.40;99.90;;;;;;5058185;28;20079;-79
2023/04/06 09:40:07;;;;;;;12.88;7.50;;;11.50;99.90;;;;;;5072724;28;20101;-80
2023/04/06 09:42:34;;;;;;;12.70;7.18;;;11.60;99.90;;;;;;5046626;28;20045;-78
2023/04/06 09:45:03;;;;;;;14.38;8.00;;;11.80;99.90;;;;;;5038185;28;20446;-79
2023/04/06 09:47:35;;;;;;;15.45;7.72;;;11.80;99.90;;;;;;5037693;28;20060;-78
2023/04/06 09:50:02;;;;;;;15.35;8.13;;;11.90;99.90;;;;;;5054531;28;20115;-78
2023/04/06 09:52:50;;;;;;;13.60;7.75;;;12.00;99.90;;;;;;5066331;28;20078;-79
2023/04/06 09:55:42;;;;;;;13.25;7.53;;;12.00;99.90;;;;;;5073338;28;20040;-80
2023/04/06 09:58:19;;;;;;;12.73;7.53;;;11.90;99.90;;;;;;5074515;28;20109;-79
2023/04/06 10:00:54;;;;;;;15.02;8.25;;;11.90;99.90;;;;;;5069151;28;20045;-80
2023/04/06 10:03:43;;;;;;;15.50;8.23;;;11.90;99.90;;;;;;5068407;28;20170;-80
2023/04/06 10:06:12;;;;;;;16.63;8.27;;;11.80;99.90;;;;;;5080098;28;20040;-79
2023/04/06 10:08:41;;;;;;;14.05;8.38;;;11.80;99.90;;;;;;5040951;28;20063;-79
2023/04/06 10:11:07;;;;;;;14.40;8.50;;;11.80;99.90;;;;;;5054148;28;20524;-79
2023/04/06 10:13:33;;;;;;;14.02;8.50;;;11.80;99.90;;;;;;5054397;28;20158;-79
2023/04/06 10:16:01;;;;;;;15.80;9.18;;;11.80;99.90;;;;;;5053982;28;20546;-79
2023/04/06 10:18:27;;;;;;;16.25;9.02;;;11.70;99.90;;;;;;5055995;28;20060;-79
2023/04/06 10:21:04;;;;;;;14.55;9.10;;;11.80;99.90;;;;;;5057656;28;20072;-79
2023/04/06 10:23:47;;;;;;;15.88;8.15;;;11.80;99.90;;;;;;5073897;28;20051;-79
2023/04/06 10:26:16;;;;;;;15.65;9.35;;;11.80;99.90;;;;;;5073576;28;20108;-79
2023/04/06 10:28:43;;;;;;;19.33;9.30;;;11.80;99.90;;;;;;5056365;28;20059;-79
2023/04/06 10:31:09;;;;;;;17.52;9.57;;;11.80;99.90;;;;;;5056769;28;20100;-79
2023/04/06 10:33:35;;;;;;;18.63;9.27;;;11.80;99.90;;;;;;5073754;28;20043;-79
2023/04/06 10:36:15;;;;;;;16.08;9.25;;;11.90;99.90;;;;;;5057131;28;20108;-79
2023/04/06 10:38:42;;;;;;;17.45;9.98;;;12.00;99.90;;;;;;5057112;28;20528;-79
2023/04/06 10:41:10;;;;;;;18.45;10.30;;;12.10;99.90;;;;;;5072323;28;20118;-79
2023/04/06 10:43:40;;;;;;;15.15;9.35;;;12.30;99.90;;;;;;5069782;28;20529;-79
2023/04/06 10:46:08;;;;;;;18.08;10.13;;;12.60;99.90;;;;;;5061750;28;20055;-79
2023/04/06 10:48:49;;;;;;;17.38;9.85;;;13.60;99.90;;;;;;5056916;28;20123;-79
2023/04/06 10:51:16;;;;;;;16.90;10.55;;;12.70;99.90;;;;;;5053144;28;20086;-79
2023/04/06 10:53:45;;;;;;;16.90;10.55;;;12.70;99.90;;;;;;5046987;28;20129;-79
2023/04/06 10:56:12;;;;;;;17.05;10.30;;;12.70;99.90;;;;;;5056022;28;20285;-79
2023/04/06 10:58:43;;;;;;;17.35;10.38;;;12.80;99.90;;;;;;5073682;28;20108;-79
2023/04/06 11:01:11;;;;;;;17.83;10.60;;;12.80;99.90;;;;;;5056620;28;20040;-79
2023/04/06 11:03:47;;;;;;;18.45;11.20;;;12.90;99.90;;;;;;5055597;28;20047;-79
2023/04/06 11:06:23;;;;;;;20.40;11.98;;;13.00;99.90;;;;;;5070925;28;20093;-79
2023/04/06 11:08:50;;;;;;;17.33;10.55;;;13.10;99.90;;;;;;5037197;28;20051;-79
2023/04/06 11:11:18;;;;;;;18.70;11.15;;;13.10;99.90;;;;;;5036717;28;20536;-79
2023/04/06 11:13:46;;;;;;;19.50;12.23;;;13.10;99.90;;;;;;5036590;28;20051;-79
2023/04/06 11:16:17;;;;;;;19.00;12.27;;;13.10;99.90;;;;;;5060018;28;20041;-79
2023/04/06 11:19:09;;;;;;;19.00;12.45;;;13.00;99.90;;;;;;5073127;28;20398;-79
2023/04/06 11:21:38;;;;;;;19.85;12.07;;;13.00;99.90;;;;;;5070062;28;20071;-79
2023/04/06 11:24:11;;;;;;;20.52;12.45;;;13.00;99.90;;;;;;5072816;28;20044;-79
2023/04/06 11:26:38;;;;;;;;;;;13.00;99.90;;;;;;5072060;28;20486;-79
2023/04/06 11:29:05;;;;;;;19.13;11.95;;;13.00;99.90;;;;;;5056063;28;19970;-79
2023/04/06 11:31:31;;;;;;;20.60;12.25;;;13.00;99.90;;;;;;5055796;28;20170;-79
2023/04/06 11:33:57;;;;;;;20.48;12.90;;;13.20;99.90;;;;;;5056579;28;20123;-79
2023/04/06 11:36:23;;;;;;;19.70;12.45;;;13.30;99.90;;;;;;5039417;28;20440;-79
2023/04/06 11:38:49;;;;;;;21.70;12.93;;;13.30;99.90;;;;;;5070677;28;20040;-79
2023/04/06 11:41:15;;;;;;;20.65;12.93;;;13.40;99.90;;;;;;5056022;28;20082;-79
2023/04/06 11:43:47;;;;;;;21.17;12.57;;;13.40;99.90;;;;;;5055803;28;20409;-79
2023/04/06 11:46:19;;;;;;;20.60;13.90;;;13.50;99.90;;;;;;5072706;28;20032;-79
2023/04/06 11:48:47;;;;;;;22.77;14.18;;;13.50;99.90;;;;;;5055929;28;20293;-79
2023/04/06 11:51:22;;;;;;;22.50;14.43;;;13.60;99.90;;;;;;5054529;28;20044;-79
2023/04/06 11:53:48;;;;;;;21.20;13.82;;;13.60;99.90;;;;;;5055218;28;20052;-79
2023/04/06 11:56:30;;;;;;;23.85;15.35;;;13.70;99.90;;;;;;5055022;28;20054;-79
2023/04/06 11:58:57;;;;;;;21.88;14.82;;;13.90;99.90;;;;;;5072167;28;20051;-79
2023/04/06 12:01:24;;;;;;;24.55;15.23;;;13.90;99.90;;;;;;5071809;28;20493;-79
2023/04/06 12:03:51;;;;;;;24.05;14.85;;;14.00;99.90;;;;;;5054077;28;20044;-79
2023/04/06 12:06:16;;;;;;;24.15;15.60;;;14.00;99.90;;;;;;5047586;28;20492;-79
2023/04/06 12:08:42;;;;;;;24.65;15.00;;;14.00;99.90;;;;;;5035681;28;20060;-79
2023/04/06 12:11:08;;;;;;;23.05;15.02;;;14.00;99.90;;;;;;5051820;28;20494;-79
2023/04/06 12:13:34;;;;;;;25.50;15.77;;;14.10;99.90;;;;;;5035341;28;20044;-79
2023/04/06 12:16:00;;;;;;;26.35;14.98;;;14.10;99.90;;;;;;5068354;28;20044;-79
2023/04/06 12:18:25;;;;;;;24.75;15.10;;;14.10;99.90;;;;;;5037093;28;20044;-79
2023/04/06 12:20:51;;;;;;;22.10;14.63;;;14.00;99.90;;;;;;5034956;28;20056;-79
2023/04/06 12:23:19;;;;;;;23.95;15.75;;;14.00;99.90;;;;;;5018959;28;20036;-79
2023/04/06 12:25:45;;;;;;;22.77;15.05;;;14.00;99.90;;;;;;5028990;28;20324;-79
2023/04/06 12:28:11;;;;;;;22.92;15.20;;;13.90;99.90;;;;;;5038476;28;20052;-79
2023/04/06 12:30:37;;;;;;;23.17;15.07;;;13.90;99.90;;;;;;5051439;28;20066;-79
2023/04/06 12:33:02;;;;;;;24.45;16.15;;;13.80;99.90;;;;;;5034991;28;20062;-79
2023/04/06 12:35:28;;;;;;;26.20;16.30;;;13.80;99.90;;;;;;5038671;28;20035;-79
2023/04/06 12:37:54;;;;;;;25.13;16.55;;;13.70;99.90;;;;;;5054916;28;20048;-79
2023/04/06 12:40:20;;;;;;;25.63;15.57;;;13.70;99.90;;;;;;5071185;28;20044;-79
2023/04/06 12:42:46;;;;;;;25.92;16.50;;;13.80;99.90;;;;;;5071375;28;20040;-79